Terminal Aerodrome Forecast
Issued by NWS St Louis, MO

Home | Current Version | Previous Version | Text Only | Print | Product List | Glossary On
Versions: 1 2 3 4 5 6 7 8 9 10 11 12 13 14 15 16 17 18 19 20 21 22 23
000
FTUS43 KLSX 020124 AAA
TAFCOU
TAF AMD
KCOU 020124Z 0201/0224 09006KT 3SM RA VCTS OVC030CB
      TEMPO 0201/0203 VRB20G30KT 3/4SM +TSRA OVC010CB
     FM021000 05008KT 3SM BR VCSH OVC010
     FM021500 03009KT 6SM BR OVC020
     FM022100 36009KT P6SM BKN035=

USA.gov is the U.S. government's official web portal to all federal, state and local government web resources and services.